createdAt,value
2023-01-29T00:00:32.278Z,9.443754
2023-01-29T00:01:32.237Z,9.443769
2023-01-29T00:02:32.240Z,9.443660
2023-01-29T00:03:32.267Z,9.443597
2023-01-29T00:04:32.222Z,9.443659
2023-01-29T00:05:32.252Z,9.443625
2023-01-29T00:06:32.240Z,9.443666
2023-01-29T00:07:32.206Z,9.443701
2023-01-29T00:08:32.205Z,9.443656
2023-01-29T00:09:32.230Z,9.443633
2023-01-29T00:10:32.228Z,9.443731
2023-01-29T00:11:32.223Z,9.443609
2023-01-29T00:12:32.219Z,9.443708
2023-01-29T00:13:32.198Z,9.443704
2023-01-29T00:14:32.181Z,9.443629
2023-01-29T00:15:32.201Z,9.443689
2023-01-29T00:16:32.172Z,9.443614
2023-01-29T00:17:32.166Z,9.443541
2023-01-29T00:18:32.152Z,9.443598
2023-01-29T00:19:32.156Z,9.443585
2023-01-29T00:20:32.171Z,9.443629
2023-01-29T00:21:32.218Z,9.443719
2023-01-29T00:22:32.126Z,9.443793
2023-01-29T00:23:32.118Z,9.443777
2023-01-29T00:24:32.170Z,9.443690
2023-01-29T00:25:32.104Z,9.443686
2023-01-29T00:26:32.112Z,9.443690
2023-01-29T00:27:32.108Z,9.443689
2023-01-29T00:28:32.093Z,9.443740
2023-01-29T00:29:32.085Z,9.443756
2023-01-29T00:30:32.101Z,9.443732
2023-01-29T00:31:32.119Z,9.443744
2023-01-29T00:32:32.059Z,9.443666
2023-01-29T00:33:32.071Z,9.443692
2023-01-29T00:34:32.072Z,9.443716
2023-01-29T00:35:32.055Z,9.443745
2023-01-29T00:36:32.059Z,9.443709
2023-01-29T00:37:33.059Z,9.443725
2023-01-29T00:38:32.061Z,9.443754
2023-01-29T00:39:46.734Z,9.443754
2023-01-29T00:40:34.064Z,9.443790
2023-01-29T00:41:32.034Z,9.443783
2023-01-29T00:42:32.025Z,9.443788
2023-01-29T00:43:32.025Z,9.443757
2023-01-29T00:44:32.007Z,9.443715
2023-01-29T00:45:32.001Z,9.443733
2023-01-29T00:46:32.058Z,9.443807
2023-01-29T00:47:31.977Z,9.443760
2023-01-29T00:48:31.987Z,9.443708
2023-01-29T00:49:32.015Z,9.443693
2023-01-29T00:50:31.977Z,9.443748
2023-01-29T00:51:31.960Z,9.443732
2023-01-29T00:52:31.975Z,9.443744
2023-01-29T00:53:31.985Z,9.443771
2023-01-29T00:54:33.125Z,9.443824
2023-01-29T00:55:32.945Z,9.443589
2023-01-29T00:56:31.949Z,9.443727
2023-01-29T00:57:31.943Z,9.443758
2023-01-29T00:58:31.948Z,9.443788
2023-01-29T00:59:31.945Z,9.443792
2023-01-29T01:00:32.049Z,9.443719
2023-01-29T01:01:31.934Z,9.443727
2023-01-29T01:02:31.897Z,9.443757
2023-01-29T01:03:31.895Z,9.443729
2023-01-29T01:04:33.539Z,9.443721
2023-01-29T01:05:31.874Z,9.443728
2023-01-29T01:06:31.871Z,9.443763
2023-01-29T01:07:31.884Z,9.443768
2023-01-29T01:08:31.858Z,9.443701
2023-01-29T01:09:31.880Z,9.443692
2023-01-29T01:10:31.877Z,9.443643
2023-01-29T01:11:31.848Z,9.443769
2023-01-29T01:12:31.846Z,9.443860
2023-01-29T01:13:31.852Z,9.443860
2023-01-29T01:14:31.849Z,9.443600
2023-01-29T01:15:31.852Z,9.443708
2023-01-29T01:16:31.877Z,9.443776
2023-01-29T01:17:31.812Z,9.443687
2023-01-29T01:18:31.811Z,9.443630
2023-01-29T01:19:31.820Z,9.443664
2023-01-29T01:20:31.802Z,9.443774
2023-01-29T01:21:31.784Z,9.443967
2023-01-29T01:22:31.796Z,9.443771
2023-01-29T01:23:31.775Z,9.443837
2023-01-29T01:24:31.818Z,9.443686
2023-01-29T01:25:31.812Z,9.443687
2023-01-29T01:26:31.787Z,9.443769
2023-01-29T01:27:31.767Z,9.443777
2023-01-29T01:28:31.770Z,9.443833
2023-01-29T01:29:31.742Z,9.443833
2023-01-29T01:30:31.749Z,9.443617
2023-01-29T01:31:31.799Z,9.443805
2023-01-29T01:32:31.709Z,9.443686
2023-01-29T01:33:31.712Z,9.443798
2023-01-29T01:34:31.722Z,9.443952
2023-01-29T01:35:31.718Z,9.443999
2023-01-29T01:36:31.686Z,9.443677
2023-01-29T01:37:31.711Z,9.443455
2023-01-29T01:38:31.678Z,9.443570
2023-01-29T01:39:31.695Z,9.443628
2023-01-29T01:40:31.694Z,9.443745
2023-01-29T01:41:31.713Z,9.443700
2023-01-29T01:42:31.669Z,9.443578
2023-01-29T01:43:31.670Z,9.443558
2023-01-29T01:44:31.643Z,9.443742
2023-01-29T01:45:31.677Z,9.443761
2023-01-29T01:46:31.657Z,9.443616
2023-01-29T01:47:31.639Z,9.443637
2023-01-29T01:48:31.633Z,9.443803
2023-01-29T01:49:31.633Z,9.443679
2023-01-29T01:50:31.632Z,9.443627
2023-01-29T01:51:31.619Z,9.443669
2023-01-29T01:52:31.606Z,9.443629
2023-01-29T01:53:31.622Z,9.443626
2023-01-29T01:54:31.590Z,9.443688
2023-01-29T01:55:31.593Z,9.443772
2023-01-29T01:56:31.574Z,9.443689
2023-01-29T01:57:31.576Z,9.443739
2023-01-29T01:58:31.578Z,9.443456
2023-01-29T01:59:31.556Z,9.443611
2023-01-29T02:00:31.552Z,9.443603
2023-01-29T02:01:31.553Z,9.443579
2023-01-29T02:02:31.571Z,9.443480
2023-01-29T02:03:31.524Z,9.443638
2023-01-29T02:04:31.562Z,9.443775
2023-01-29T02:05:31.501Z,9.443741
2023-01-29T02:06:31.517Z,9.443702
2023-01-29T02:07:31.538Z,9.443690
2023-01-29T02:08:31.497Z,9.443777
2023-01-29T02:09:31.502Z,9.443696
2023-01-29T02:10:31.487Z,9.443846
2023-01-29T02:11:31.481Z,9.443622
2023-01-29T02:12:31.535Z,9.443587
2023-01-29T02:13:31.490Z,9.443680
2023-01-29T02:14:31.460Z,9.443856
2023-01-29T02:15:31.456Z,9.443863
2023-01-29T02:16:31.464Z,9.443697
2023-01-29T02:17:31.492Z,9.443694
2023-01-29T02:18:31.468Z,9.443579
2023-01-29T02:19:31.434Z,9.443622
2023-01-29T02:20:31.437Z,9.443707
2023-01-29T02:21:31.408Z,9.443667
2023-01-29T02:22:31.422Z,9.443608
2023-01-29T02:23:31.443Z,9.443735
2023-01-29T02:24:31.413Z,9.443889
2023-01-29T02:25:31.419Z,9.443755
2023-01-29T02:26:31.392Z,9.443805
2023-01-29T02:27:31.373Z,9.443847
2023-01-29T02:28:31.388Z,9.443725
2023-01-29T02:29:32.361Z,9.443830
2023-01-29T02:30:31.359Z,9.443754
2023-01-29T02:31:31.400Z,9.443748
2023-01-29T02:32:31.339Z,9.443725
2023-01-29T02:33:31.337Z,9.443707
2023-01-29T02:34:31.339Z,9.444026
2023-01-29T02:35:31.329Z,9.444198
2023-01-29T02:36:31.334Z,9.444262
2023-01-29T02:37:31.315Z,9.444196
2023-01-29T02:38:31.298Z,9.444099
2023-01-29T02:39:31.291Z,9.443823
2023-01-29T02:40:31.289Z,9.443678
2023-01-29T02:41:31.303Z,9.443474
2023-01-29T02:42:31.283Z,9.443474
2023-01-29T02:43:31.281Z,9.443521
2023-01-29T02:44:31.262Z,9.443661
2023-01-29T02:45:31.320Z,9.443610
2023-01-29T02:46:31.274Z,9.443526
2023-01-29T02:47:31.236Z,9.443668
2023-01-29T02:48:31.251Z,9.443657
2023-01-29T02:49:31.246Z,9.443638
2023-01-29T02:50:31.223Z,9.443564
2023-01-29T02:51:31.231Z,9.443435
2023-01-29T02:52:31.240Z,9.443562
2023-01-29T02:53:31.203Z,9.443571
2023-01-29T02:54:31.200Z,9.443747
2023-01-29T02:55:31.208Z,9.443555
2023-01-29T02:56:31.203Z,9.443572
2023-01-29T02:57:31.185Z,9.443689
2023-01-29T02:58:31.206Z,9.443839
2023-01-29T02:59:31.175Z,9.443802
2023-01-29T03:00:31.179Z,9.443797
2023-01-29T03:01:31.173Z,9.443683
2023-01-29T03:02:31.257Z,9.443714
2023-01-29T03:03:31.156Z,9.443760
2023-01-29T03:04:31.158Z,9.443696
2023-01-29T03:05:31.129Z,9.443717
2023-01-29T03:06:31.131Z,9.443733
2023-01-29T03:07:31.141Z,9.443876
2023-01-29T03:08:31.122Z,9.443726
2023-01-29T03:09:31.103Z,9.443778
2023-01-29T03:10:31.100Z,9.443900
2023-01-29T03:11:31.093Z,9.443776
2023-01-29T03:12:31.090Z,9.443696
2023-01-29T03:13:31.100Z,9.443664
2023-01-29T03:14:32.071Z,9.443678
2023-01-29T03:15:31.075Z,9.443733
2023-01-29T03:16:31.115Z,9.443795
2023-01-29T03:17:31.045Z,9.443764
2023-01-29T03:18:31.065Z,9.443749
2023-01-29T03:19:31.046Z,9.443757
2023-01-29T03:20:31.046Z,9.443818
2023-01-29T03:21:31.071Z,9.443802
2023-01-29T03:22:31.026Z,9.443752
2023-01-29T03:23:31.018Z,9.443789
2023-01-29T03:24:31.024Z,9.443822
2023-01-29T03:25:31.006Z,9.443828
2023-01-29T03:26:31.012Z,9.443834
2023-01-29T03:27:31.004Z,9.443860
2023-01-29T03:28:30.973Z,9.443871
2023-01-29T03:29:30.976Z,9.443793
2023-01-29T03:30:30.984Z,9.443851
2023-01-29T03:31:31.099Z,9.443783
2023-01-29T03:32:30.974Z,9.443784
2023-01-29T03:33:30.961Z,9.443746
2023-01-29T03:34:31.949Z,9.443728
2023-01-29T03:35:30.927Z,9.443707
2023-01-29T03:36:31.937Z,9.443706
2023-01-29T03:37:30.936Z,9.443754
2023-01-29T03:38:30.962Z,9.443737
2023-01-29T03:39:30.944Z,9.443741
2023-01-29T03:40:30.905Z,9.443756
2023-01-29T03:41:30.906Z,9.443748
2023-01-29T03:42:30.911Z,9.443806
2023-01-29T03:43:30.908Z,9.443744
2023-01-29T03:44:30.890Z,9.443759
2023-01-29T03:45:30.997Z,9.443730
2023-01-29T03:46:30.880Z,9.443694
2023-01-29T03:47:30.873Z,9.443678
2023-01-29T03:48:30.878Z,9.443725
2023-01-29T03:49:30.863Z,9.443731
2023-01-29T03:50:30.852Z,9.443725
2023-01-29T03:51:30.855Z,9.443740
2023-01-29T03:52:30.851Z,9.443742
2023-01-29T03:53:30.854Z,9.443767
2023-01-29T03:54:30.850Z,9.443712
2023-01-29T03:55:30.834Z,9.443718
2023-01-29T03:56:30.819Z,9.443743
2023-01-29T03:57:30.816Z,9.443799
2023-01-29T03:58:30.800Z,9.443790
2023-01-29T03:59:30.799Z,9.443767
2023-01-29T04:00:30.830Z,9.443763
2023-01-29T04:01:30.810Z,9.443744
2023-01-29T04:02:30.777Z,9.443745
2023-01-29T04:03:30.788Z,9.443757
2023-01-29T04:04:30.770Z,9.443807
2023-01-29T04:05:30.777Z,9.443803
2023-01-29T04:06:30.778Z,9.443727
2023-01-29T04:07:30.744Z,9.443740
2023-01-29T04:08:30.749Z,9.443702
2023-01-29T04:09:30.741Z,9.443711
2023-01-29T04:10:30.745Z,9.443718
2023-01-29T04:11:30.716Z,9.443713
2023-01-29T04:12:30.742Z,9.443740
2023-01-29T04:13:30.704Z,9.443742
2023-01-29T04:14:30.719Z,9.443790
2023-01-29T04:15:30.701Z,9.443708
2023-01-29T04:16:30.767Z,9.443673
2023-01-29T04:17:30.680Z,9.443767
2023-01-29T04:18:30.680Z,9.443739
2023-01-29T04:19:30.690Z,9.443721
2023-01-29T04:20:30.663Z,9.443712
2023-01-29T04:21:30.672Z,9.443785
2023-01-29T04:22:30.688Z,9.443782
2023-01-29T04:23:30.650Z,9.443751
2023-01-29T04:24:30.671Z,9.443789
2023-01-29T04:25:30.632Z,9.443763
2023-01-29T04:26:30.623Z,9.443767
2023-01-29T04:27:30.625Z,9.443806
2023-01-29T04:28:30.614Z,9.443775
2023-01-29T04:29:30.604Z,9.443757
2023-01-29T04:30:30.615Z,9.443718
2023-01-29T04:31:30.648Z,9.443758
2023-01-29T04:32:30.603Z,9.443816
2023-01-29T04:33:30.601Z,9.443785
2023-01-29T04:34:30.587Z,9.443819
2023-01-29T04:35:30.571Z,9.443758
2023-01-29T04:36:30.558Z,9.443779
2023-01-29T04:37:30.584Z,9.443801
2023-01-29T04:38:30.567Z,9.443791
2023-01-29T04:39:30.575Z,9.443774
2023-01-29T04:40:30.535Z,9.443789
2023-01-29T04:41:30.542Z,9.443740
2023-01-29T04:42:30.531Z,9.443795
2023-01-29T04:43:30.522Z,9.443760
2023-01-29T04:44:30.540Z,9.443771
2023-01-29T04:45:30.516Z,9.443769
2023-01-29T04:46:30.505Z,9.443787
2023-01-29T04:47:30.565Z,9.443766
2023-01-29T04:48:30.510Z,9.443731
2023-01-29T04:49:30.512Z,9.443710
2023-01-29T04:50:31.498Z,9.443710
2023-01-29T04:51:30.486Z,9.443710
2023-01-29T04:52:30.478Z,9.443629
2023-01-29T04:53:30.461Z,9.443691
2023-01-29T04:54:30.465Z,9.443706
2023-01-29T04:55:30.448Z,9.443735
2023-01-29T04:56:30.456Z,9.443771
2023-01-29T04:57:30.449Z,9.443703
2023-01-29T04:58:30.452Z,9.443682
2023-01-29T04:59:30.434Z,9.443731
2023-01-29T05:00:30.429Z,9.443615
2023-01-29T05:01:30.427Z,9.443599
2023-01-29T05:02:30.467Z,9.443576
2023-01-29T05:03:30.432Z,9.443617
2023-01-29T05:04:30.398Z,9.443534
2023-01-29T05:05:30.416Z,9.443477
2023-01-29T05:06:30.389Z,9.443360
2023-01-29T05:07:30.396Z,9.443363
2023-01-29T05:08:30.379Z,9.443554
2023-01-29T05:09:30.371Z,9.443675
2023-01-29T05:10:30.368Z,9.443657
2023-01-29T05:11:30.370Z,9.443445
2023-01-29T05:12:30.389Z,9.443267
2023-01-29T05:13:30.343Z,9.443240
2023-01-29T05:14:30.357Z,9.443353
2023-01-29T05:15:30.344Z,9.443481
2023-01-29T05:16:30.327Z,9.443510
2023-01-29T05:17:30.335Z,9.443587
2023-01-29T05:18:30.331Z,9.443688
2023-01-29T05:19:30.331Z,9.443553
2023-01-29T05:20:30.330Z,9.443531
2023-01-29T05:21:30.305Z,9.443528
2023-01-29T05:22:30.289Z,9.443509
2023-01-29T05:23:30.309Z,9.443436
2023-01-29T05:24:30.320Z,9.443390
2023-01-29T05:25:30.299Z,9.443526
2023-01-29T05:26:30.273Z,9.443797
2023-01-29T05:27:31.279Z,9.443734
2023-01-29T05:28:30.263Z,9.443455
2023-01-29T05:29:30.259Z,9.443398
2023-01-29T05:30:30.259Z,9.443279
2023-01-29T05:31:30.350Z,9.443337
2023-01-29T05:32:30.243Z,9.443398
2023-01-29T05:33:30.238Z,9.443539
2023-01-29T05:34:30.222Z,9.443598
2023-01-29T05:35:31.223Z,9.443670
2023-01-29T05:36:30.229Z,9.443684
2023-01-29T05:37:30.224Z,9.443618
2023-01-29T05:38:30.210Z,9.443576
2023-01-29T05:39:30.220Z,9.443660
2023-01-29T05:40:30.194Z,9.443593
2023-01-29T05:41:30.189Z,9.443604
2023-01-29T05:42:30.194Z,9.443608
2023-01-29T05:43:30.194Z,9.443488
2023-01-29T05:44:30.176Z,9.443527
2023-01-29T05:45:30.175Z,9.443578
2023-01-29T05:46:30.191Z,9.443670
2023-01-29T05:47:30.172Z,9.443583
2023-01-29T05:48:30.149Z,9.443629
2023-01-29T05:49:30.162Z,9.443607
2023-01-29T05:50:30.157Z,9.443565
2023-01-29T05:51:30.146Z,9.443606
2023-01-29T05:52:30.138Z,9.443584
2023-01-29T05:53:30.136Z,9.443614
2023-01-29T05:54:30.127Z,9.443555
2023-01-29T05:55:30.114Z,9.443515
2023-01-29T05:56:30.117Z,9.443550
2023-01-29T05:57:30.150Z,9.443548
2023-01-29T05:58:30.105Z,9.443589
2023-01-29T05:59:30.091Z,9.443658
2023-01-29T06:00:31.082Z,9.443703
2023-01-29T06:01:30.118Z,9.443706
2023-01-29T06:02:30.124Z,9.443687
2023-01-29T06:03:30.069Z,9.443653
2023-01-29T06:04:30.061Z,9.443623
2023-01-29T06:05:30.062Z,9.443663
2023-01-29T06:06:30.052Z,9.443752
2023-01-29T06:07:30.031Z,9.443664
2023-01-29T06:08:30.042Z,9.443686
2023-01-29T06:09:30.032Z,9.443695
2023-01-29T06:10:30.018Z,9.443677
2023-01-29T06:11:30.034Z,9.443630
2023-01-29T06:12:30.012Z,9.443600
2023-01-29T06:13:30.017Z,9.443499
2023-01-29T06:14:30.009Z,9.443536
2023-01-29T06:15:30.005Z,9.443645
2023-01-29T06:16:30.106Z,9.443671
2023-01-29T06:17:29.989Z,9.443667
2023-01-29T06:18:29.988Z,9.443687
2023-01-29T06:19:29.980Z,9.443654
2023-01-29T06:20:29.975Z,9.443542
2023-01-29T06:21:29.964Z,9.443539
2023-01-29T06:22:29.981Z,9.443769
2023-01-29T06:23:29.954Z,9.443850
2023-01-29T06:24:30.007Z,9.443703
2023-01-29T06:25:29.955Z,9.443687
2023-01-29T06:26:29.938Z,9.443585
2023-01-29T06:27:29.945Z,9.443684
2023-01-29T06:28:29.924Z,9.443617
2023-01-29T06:29:29.920Z,9.443605
2023-01-29T06:30:30.022Z,9.443707
2023-01-29T06:31:39.040Z,9.443654
2023-01-29T06:32:32.003Z,9.443701
2023-01-29T06:33:29.947Z,9.443590
2023-01-29T06:34:29.917Z,9.443556
2023-01-29T06:35:29.900Z,9.443590
2023-01-29T06:36:29.880Z,9.443604
2023-01-29T06:37:29.887Z,9.443584
2023-01-29T06:38:29.856Z,9.443577
2023-01-29T06:39:29.858Z,9.443622
2023-01-29T06:40:29.860Z,9.443701
2023-01-29T06:41:29.842Z,9.443636
2023-01-29T06:42:29.846Z,9.443726
2023-01-29T06:43:29.852Z,9.443623
2023-01-29T06:44:29.834Z,9.443775
2023-01-29T06:45:29.897Z,9.443739
2023-01-29T06:46:29.826Z,9.443565
2023-01-29T06:47:29.828Z,9.443719
2023-01-29T06:48:29.833Z,9.443589
2023-01-29T06:49:29.818Z,9.443634
2023-01-29T06:50:29.791Z,9.443727
2023-01-29T06:51:29.788Z,9.443634
2023-01-29T06:52:29.827Z,9.443548
2023-01-29T06:53:29.782Z,9.443575
2023-01-29T06:54:29.773Z,9.443684
2023-01-29T06:55:29.795Z,9.443734
2023-01-29T06:56:29.753Z,9.443709
2023-01-29T06:57:29.755Z,9.443739
2023-01-29T06:58:29.788Z,9.443686
2023-01-29T06:59:29.748Z,9.443599
2023-01-29T07:00:31.469Z,9.443683
2023-01-29T07:01:36.179Z,9.443791
2023-01-29T07:02:31.776Z,9.443666
2023-01-29T07:03:29.734Z,9.443636
2023-01-29T07:04:29.722Z,9.443680
2023-01-29T07:05:29.709Z,9.443687
2023-01-29T07:06:29.720Z,9.443720
2023-01-29T07:07:29.713Z,9.443750
2023-01-29T07:08:29.699Z,9.443704
2023-01-29T07:09:29.688Z,9.443812
2023-01-29T07:10:29.792Z,9.443854
2023-01-29T07:11:29.681Z,9.443716
2023-01-29T07:12:29.677Z,9.443760
2023-01-29T07:13:30.673Z,9.443706
2023-01-29T07:14:29.664Z,9.443746
2023-01-29T07:15:29.650Z,9.443789
2023-01-29T07:16:29.865Z,9.443810
2023-01-29T07:17:29.661Z,9.443776
2023-01-29T07:18:29.655Z,9.443777
2023-01-29T07:19:29.641Z,9.443784
2023-01-29T07:20:29.742Z,9.443716
2023-01-29T07:21:29.619Z,9.443790
2023-01-29T07:22:29.633Z,9.443754
2023-01-29T07:23:29.613Z,9.443790
2023-01-29T07:24:29.727Z,9.443804
2023-01-29T07:25:29.614Z,9.443733
2023-01-29T07:26:29.592Z,9.443802
2023-01-29T07:27:29.586Z,9.443743
2023-01-29T07:28:30.602Z,9.443710
2023-01-29T07:29:29.580Z,9.443695
2023-01-29T07:30:29.564Z,9.443754
2023-01-29T07:31:29.637Z,9.443859
2023-01-29T07:32:29.559Z,9.443810
2023-01-29T07:33:29.563Z,9.443722
2023-01-29T07:34:29.585Z,9.443569
2023-01-29T07:35:29.544Z,9.443750
2023-01-29T07:36:29.554Z,9.443797
2023-01-29T07:37:29.573Z,9.443696
2023-01-29T07:38:29.539Z,9.443648
2023-01-29T07:39:29.531Z,9.443738
2023-01-29T07:40:29.537Z,9.443710
2023-01-29T07:41:29.506Z,9.443703
2023-01-29T07:42:29.488Z,9.443701
2023-01-29T07:43:29.494Z,9.443704
2023-01-29T07:44:29.500Z,9.443638
2023-01-29T07:45:30.507Z,9.443706
2023-01-29T07:46:29.490Z,9.443639
2023-01-29T07:47:29.481Z,9.443743
2023-01-29T07:48:29.459Z,9.443719
2023-01-29T07:49:29.507Z,9.443613
2023-01-29T07:50:29.455Z,9.443615
2023-01-29T07:51:29.445Z,9.443738
2023-01-29T07:52:29.457Z,9.443686
2023-01-29T07:53:29.464Z,9.443666
2023-01-29T07:54:29.464Z,9.443704
2023-01-29T07:55:29.426Z,9.443703
2023-01-29T07:56:29.416Z,9.443699
2023-01-29T07:57:29.409Z,9.443720
2023-01-29T07:58:29.404Z,9.443718
2023-01-29T07:59:29.403Z,9.443736
2023-01-29T08:00:29.398Z,9.443757
2023-01-29T08:01:29.401Z,9.443751
2023-01-29T08:02:29.425Z,9.443741
2023-01-29T08:03:29.381Z,9.443725
2023-01-29T08:04:29.376Z,9.443736
2023-01-29T08:05:29.365Z,9.443743
2023-01-29T08:06:29.357Z,9.443774
2023-01-29T08:07:29.350Z,9.443797
2023-01-29T08:08:29.337Z,9.443788
2023-01-29T08:09:29.329Z,9.443745
2023-01-29T08:10:29.331Z,9.443727
2023-01-29T08:11:29.343Z,9.443769
2023-01-29T08:12:29.324Z,9.443819
2023-01-29T08:13:29.308Z,9.443842
2023-01-29T08:14:29.311Z,9.443758
2023-01-29T08:15:29.299Z,9.443791
2023-01-29T08:16:29.326Z,9.443665
2023-01-29T08:17:29.302Z,9.443836
2023-01-29T08:18:29.280Z,9.443760
2023-01-29T08:19:29.262Z,9.443822
2023-01-29T08:20:29.290Z,9.443735
2023-01-29T08:21:29.262Z,9.443737
2023-01-29T08:22:29.243Z,9.443738
2023-01-29T08:23:29.257Z,9.443735
2023-01-29T08:24:41.521Z,9.443767
2023-01-29T08:25:30.299Z,9.443767
2023-01-29T08:26:29.245Z,9.443672
2023-01-29T08:27:29.210Z,9.443788
2023-01-29T08:28:29.216Z,9.443715
2023-01-29T08:29:29.208Z,9.443733
2023-01-29T08:30:29.234Z,9.443759
2023-01-29T08:31:29.228Z,9.443783
2023-01-29T08:32:29.212Z,9.443966
2023-01-29T08:33:38.651Z,9.443795
2023-01-29T08:34:31.167Z,9.443794
2023-01-29T08:35:29.176Z,9.443801
2023-01-29T08:36:29.169Z,9.443684
2023-01-29T08:37:29.161Z,9.443660
2023-01-29T08:38:29.143Z,9.443715
2023-01-29T08:39:29.157Z,9.443690
2023-01-29T08:40:29.168Z,9.443645
2023-01-29T08:41:29.139Z,9.443651
2023-01-29T08:42:29.147Z,9.443646
2023-01-29T08:43:29.118Z,9.443555
2023-01-29T08:44:29.127Z,9.443451
2023-01-29T08:45:29.153Z,9.443706
2023-01-29T08:46:29.112Z,9.443645
2023-01-29T08:47:29.672Z,9.443586
2023-01-29T08:48:29.101Z,9.443393
2023-01-29T08:49:29.079Z,9.443709
2023-01-29T08:50:29.069Z,9.443741
2023-01-29T08:51:29.085Z,9.443739
2023-01-29T08:52:29.053Z,9.443739
2023-01-29T08:53:29.062Z,9.443772
2023-01-29T08:54:29.049Z,9.443778
2023-01-29T08:55:29.048Z,9.443785
2023-01-29T08:56:29.029Z,9.443734
2023-01-29T08:57:29.054Z,9.443776
2023-01-29T08:58:29.079Z,9.443698
2023-01-29T08:59:29.011Z,9.443732
2023-01-29T09:00:28.991Z,9.443763
2023-01-29T09:01:30.070Z,9.443767
2023-01-29T09:02:29.062Z,9.443769
2023-01-29T09:03:29.001Z,9.443815
2023-01-29T09:04:29.036Z,9.443821
2023-01-29T09:05:28.979Z,9.443835
2023-01-29T09:06:28.971Z,9.443830
2023-01-29T09:07:28.964Z,9.443758
2023-01-29T09:08:28.974Z,9.443754
2023-01-29T09:09:28.967Z,9.443683
2023-01-29T09:10:28.940Z,9.443651
2023-01-29T09:11:28.946Z,9.443768
2023-01-29T09:12:28.942Z,9.443764
2023-01-29T09:13:28.940Z,9.443764
2023-01-29T09:14:28.924Z,9.443719
2023-01-29T09:15:28.908Z,9.443830
2023-01-29T09:16:29.925Z,9.443524
2023-01-29T09:17:28.895Z,9.443557
2023-01-29T09:18:28.910Z,9.443602
2023-01-29T09:19:28.894Z,9.443744
2023-01-29T09:20:28.878Z,9.443648
2023-01-29T09:21:28.887Z,9.443697
2023-01-29T09:22:28.863Z,9.443632
2023-01-29T09:23:28.874Z,9.443682
2023-01-29T09:24:28.890Z,9.443779
2023-01-29T09:25:28.848Z,9.443810
2023-01-29T09:26:28.863Z,9.443750
2023-01-29T09:27:28.854Z,9.443700
2023-01-29T09:28:28.823Z,9.443675
2023-01-29T09:29:28.849Z,9.443647
2023-01-29T09:30:28.838Z,9.443438
2023-01-29T09:31:28.924Z,9.443483
2023-01-29T09:32:53.092Z,9.443562
2023-01-29T09:33:30.806Z,9.443702
2023-01-29T09:34:30.599Z,9.443674
2023-01-29T09:35:28.815Z,9.443680
2023-01-29T09:36:28.768Z,9.443623
2023-01-29T09:37:28.803Z,9.443691
2023-01-29T09:38:28.783Z,9.443740
2023-01-29T09:39:28.773Z,9.443729
2023-01-29T09:40:28.781Z,9.443690
2023-01-29T09:41:28.770Z,9.443714
2023-01-29T09:42:28.731Z,9.443694
2023-01-29T09:43:28.736Z,9.443668
2023-01-29T09:44:28.739Z,9.443578
2023-01-29T09:45:28.743Z,9.443626
2023-01-29T09:46:28.718Z,9.443618
2023-01-29T09:47:28.720Z,9.443622
2023-01-29T09:48:28.705Z,9.443663
2023-01-29T09:49:28.690Z,9.443645
2023-01-29T09:50:28.748Z,9.443679
2023-01-29T09:51:28.706Z,9.443616
2023-01-29T09:52:28.715Z,9.443669
2023-01-29T09:53:28.694Z,9.443723
2023-01-29T09:54:28.671Z,9.443667
2023-01-29T09:55:28.672Z,9.443713
2023-01-29T09:56:28.720Z,9.443684
2023-01-29T09:57:29.470Z,9.443664
2023-01-29T09:58:28.657Z,9.443700
2023-01-29T09:59:28.675Z,9.443666
2023-01-29T10:00:28.636Z,9.443648
2023-01-29T10:01:28.712Z,9.443661
2023-01-29T10:02:28.625Z,9.443719
2023-01-29T10:03:28.622Z,9.443640
2023-01-29T10:04:28.659Z,9.443645
2023-01-29T10:05:28.637Z,9.443557
2023-01-29T10:06:28.697Z,9.443581
2023-01-29T10:07:28.603Z,9.443656
2023-01-29T10:08:28.723Z,9.443670
2023-01-29T10:09:28.574Z,9.443625
2023-01-29T10:10:28.596Z,9.443601
2023-01-29T10:11:28.567Z,9.443627
2023-01-29T10:12:28.571Z,9.443654
2023-01-29T10:13:28.621Z,9.443486
2023-01-29T10:14:28.542Z,9.443579
2023-01-29T10:15:28.551Z,9.443727
2023-01-29T10:16:28.732Z,9.443667
2023-01-29T10:17:28.567Z,9.443601
2023-01-29T10:18:28.525Z,9.443543
2023-01-29T10:19:28.696Z,9.443523
2023-01-29T10:20:28.522Z,9.443568
2023-01-29T10:21:28.506Z,9.443598
2023-01-29T10:22:28.505Z,9.443618
2023-01-29T10:23:28.523Z,9.443623
2023-01-29T10:24:28.501Z,9.443568
2023-01-29T10:25:28.478Z,9.443563
2023-01-29T10:26:28.545Z,9.443656
2023-01-29T10:27:28.473Z,9.443607
2023-01-29T10:28:28.482Z,9.443686
2023-01-29T10:29:28.467Z,9.443686
2023-01-29T10:30:28.475Z,9.443637
2023-01-29T10:31:28.591Z,9.443632
2023-01-29T10:32:28.435Z,9.443673
2023-01-29T10:33:29.587Z,9.443715
2023-01-29T10:34:28.472Z,9.443680
2023-01-29T10:35:28.432Z,9.443646
2023-01-29T10:36:28.427Z,9.443694
2023-01-29T10:37:28.466Z,9.443710
2023-01-29T10:38:28.421Z,9.443738
2023-01-29T10:39:28.420Z,9.443595
2023-01-29T10:40:28.430Z,9.443671
2023-01-29T10:41:28.509Z,9.443639
2023-01-29T10:42:28.380Z,9.443673
2023-01-29T10:43:28.988Z,9.443658
2023-01-29T10:44:28.364Z,9.443727
2023-01-29T10:45:28.369Z,9.443773
2023-01-29T10:46:28.371Z,9.443748
2023-01-29T10:47:30.241Z,9.443748
2023-01-29T10:48:29.344Z,9.443752
2023-01-29T10:49:28.430Z,9.443766
2023-01-29T10:50:28.331Z,9.443739
2023-01-29T10:51:28.348Z,9.443754
2023-01-29T10:52:28.423Z,9.443746
2023-01-29T10:53:28.333Z,9.443751
2023-01-29T10:54:28.307Z,9.443737
2023-01-29T10:55:28.393Z,9.443811
2023-01-29T10:56:28.954Z,9.443756
2023-01-29T10:57:28.291Z,9.443747
2023-01-29T10:58:28.581Z,9.443758
2023-01-29T10:59:28.292Z,9.443794
2023-01-29T11:00:28.252Z,9.443775
2023-01-29T11:01:28.373Z,9.443842
2023-01-29T11:02:28.286Z,9.443800
2023-01-29T11:03:29.175Z,9.443769
2023-01-29T11:04:29.523Z,9.443736
2023-01-29T11:05:28.310Z,9.443765
2023-01-29T11:06:28.284Z,9.443809
2023-01-29T11:07:28.260Z,9.443732
2023-01-29T11:08:28.292Z,9.443684
2023-01-29T11:09:28.208Z,9.443726
2023-01-29T11:10:28.235Z,9.443731
2023-01-29T11:11:28.203Z,9.443720
2023-01-29T11:12:28.193Z,9.443713
2023-01-29T11:13:28.201Z,9.443801
2023-01-29T11:14:28.199Z,9.443779
2023-01-29T11:15:28.187Z,9.443734
2023-01-29T11:16:28.177Z,9.443708
2023-01-29T11:17:28.186Z,9.443716
2023-01-29T11:18:28.150Z,9.443712
2023-01-29T11:19:28.164Z,9.443668
2023-01-29T11:20:28.911Z,9.443712
2023-01-29T11:21:28.145Z,9.443713
2023-01-29T11:22:28.144Z,9.443599
2023-01-29T11:23:28.124Z,9.443665
2023-01-29T11:24:28.146Z,9.443700
2023-01-29T11:25:28.186Z,9.443686
2023-01-29T11:26:28.139Z,9.443610
2023-01-29T11:27:28.128Z,9.443681
2023-01-29T11:28:28.093Z,9.443574
2023-01-29T11:29:28.201Z,9.443635
2023-01-29T11:30:28.090Z,9.443640
2023-01-29T11:31:28.161Z,9.443670
2023-01-29T11:32:28.159Z,9.443601
2023-01-29T11:33:28.072Z,9.443786
2023-01-29T11:34:28.048Z,9.443804
2023-01-29T11:35:28.065Z,9.443767
2023-01-29T11:36:28.565Z,9.443766
2023-01-29T11:37:29.041Z,9.443762
2023-01-29T11:38:28.054Z,9.443679
2023-01-29T11:39:28.044Z,9.443595
2023-01-29T11:40:28.035Z,9.443587
2023-01-29T11:41:28.033Z,9.443670
2023-01-29T11:42:28.014Z,9.443599
2023-01-29T11:43:34.496Z,9.443656
2023-01-29T11:44:28.025Z,9.443656